createdAt,value
2023-05-23T00:00:14.190Z,9.81
2023-05-23T00:03:04.581Z,9.61
2023-05-23T00:05:32.697Z,9.60
2023-05-23T00:08:01.844Z,9.55
2023-05-23T00:10:29.871Z,9.47
2023-05-23T00:12:58.230Z,9.46
2023-05-23T00:15:26.471Z,9.39
2023-05-23T00:17:54.663Z,9.39
2023-05-23T00:20:23.022Z,9.40
2023-05-23T00:22:50.810Z,9.44
2023-05-23T00:25:22.056Z,9.39
2023-05-23T00:27:49.804Z,9.52
2023-05-23T00:30:18.239Z,9.50
2023-05-23T00:32:46.034Z,9.36
2023-05-23T00:35:14.100Z,9.42
2023-05-23T00:37:41.783Z,9.57
2023-05-23T00:40:10.283Z,9.78
2023-05-23T00:42:37.992Z,9.59
2023-05-23T00:45:07.197Z,9.45
2023-05-23T00:47:35.236Z,9.11
2023-05-23T00:50:04.840Z,9.19
2023-05-23T00:52:32.960Z,9.28
2023-05-23T00:55:00.967Z,9.22
2023-05-23T00:57:29.308Z,9.28
2023-05-23T00:59:57.398Z,9.05
2023-05-23T01:02:25.614Z,8.97
2023-05-23T01:04:55.633Z,8.96
2023-05-23T01:07:23.607Z,8.92
2023-05-23T01:09:51.698Z,8.83
2023-05-23T01:12:41.135Z,8.89
2023-05-23T01:15:14.820Z,8.81
2023-05-23T01:17:56.745Z,8.80
2023-05-23T01:20:54.118Z,8.74
2023-05-23T01:23:46.127Z,8.66
2023-05-23T01:26:29.269Z,8.66
2023-05-23T01:29:22.674Z,8.65
2023-05-23T01:31:54.955Z,8.64
2023-05-23T01:34:23.183Z,8.59
2023-05-23T01:36:56.202Z,8.55
2023-05-23T01:39:24.248Z,8.53
2023-05-23T01:41:54.191Z,8.45
2023-05-23T01:44:22.511Z,8.43
2023-05-23T01:46:50.770Z,8.41
2023-05-23T01:49:20.636Z,8.47
2023-05-23T01:51:49.019Z,8.44
2023-05-23T01:54:19.864Z,8.39
2023-05-23T01:56:49.966Z,8.36
2023-05-23T01:59:17.873Z,8.38
2023-05-23T02:01:46.341Z,8.33
2023-05-23T02:04:14.766Z,8.28
2023-05-23T02:06:42.719Z,8.23
2023-05-23T02:09:14.149Z,8.23
2023-05-23T02:11:42.188Z,8.21
2023-05-23T02:14:11.300Z,8.28
2023-05-23T02:16:39.419Z,8.26
2023-05-23T02:19:07.279Z,8.32
2023-05-23T02:21:35.891Z,8.37
2023-05-23T02:24:04.523Z,8.44
2023-05-23T02:26:32.763Z,8.41
2023-05-23T02:29:00.948Z,8.34
2023-05-23T02:31:29.277Z,8.28
2023-05-23T02:33:57.079Z,8.56
2023-05-23T02:36:25.208Z,8.48
2023-05-23T02:38:52.927Z,8.39
2023-05-23T02:41:21.523Z,8.44
2023-05-23T02:43:49.418Z,8.34
2023-05-23T02:46:18.200Z,8.33
2023-05-23T02:48:46.027Z,8.33
2023-05-23T02:51:14.016Z,8.39
2023-05-23T02:53:41.930Z,8.45
2023-05-23T02:56:10.076Z,8.48
2023-05-23T02:58:37.758Z,8.52
2023-05-23T03:01:07.827Z,8.55
2023-05-23T03:03:36.596Z,8.61
2023-05-23T03:06:07.530Z,8.63
2023-05-23T03:08:35.476Z,8.79
2023-05-23T03:11:03.508Z,9.11
2023-05-23T03:13:31.432Z,9.14
2023-05-23T03:15:59.494Z,9.36
2023-05-23T03:18:27.516Z,9.29
2023-05-23T03:20:57.069Z,9.34
2023-05-23T03:23:25.240Z,9.37
2023-05-23T03:25:53.390Z,9.48
2023-05-23T03:28:22.001Z,10.03
2023-05-23T03:30:50.143Z,10.54
2023-05-23T03:33:17.962Z,10.98
2023-05-23T03:35:46.088Z,12.01
2023-05-23T03:38:13.989Z,12.80
2023-05-23T03:40:42.160Z,13.37
2023-05-23T03:43:10.074Z,13.02
2023-05-23T03:45:41.896Z,12.56
2023-05-23T03:48:13.958Z,12.33
2023-05-23T03:50:43.485Z,12.20
2023-05-23T03:53:12.726Z,12.16
2023-05-23T03:55:41.075Z,12.07
2023-05-23T03:58:08.980Z,12.12
2023-05-23T04:00:37.239Z,12.13
2023-05-23T04:03:08.915Z,12.21
2023-05-23T04:05:37.525Z,12.24
2023-05-23T04:08:05.432Z,12.41
2023-05-23T04:10:33.662Z,12.82
2023-05-23T04:13:01.537Z,12.95
2023-05-23T04:15:29.656Z,13.17
2023-05-23T04:18:07.572Z,14.25
2023-05-23T04:20:35.876Z,14.01
2023-05-23T04:23:03.799Z,14.30
2023-05-23T04:25:34.467Z,15.34
2023-05-23T04:28:11.007Z,17.07
2023-05-23T04:30:39.170Z,16.47
2023-05-23T04:33:08.028Z,16.36
2023-05-23T04:35:39.215Z,16.19
2023-05-23T04:38:07.577Z,15.98
2023-05-23T04:40:36.039Z,15.97
2023-05-23T04:43:42.795Z,15.89
2023-05-23T04:46:22.198Z,15.91
2023-05-23T04:48:56.510Z,16.07
2023-05-23T04:51:25.163Z,16.16
2023-05-23T04:53:57.169Z,16.36
2023-05-23T04:56:28.424Z,16.51
2023-05-23T04:58:56.457Z,16.63
2023-05-23T05:01:26.246Z,16.72
2023-05-23T05:03:54.844Z,16.87
2023-05-23T05:06:23.989Z,16.82
2023-05-23T05:08:53.139Z,16.93
2023-05-23T05:11:22.494Z,16.95
2023-05-23T05:13:50.240Z,17.14
2023-05-23T05:16:18.374Z,17.60
2023-05-23T05:18:46.485Z,18.02
2023-05-23T05:21:14.761Z,17.70
2023-05-23T05:23:43.673Z,17.51
2023-05-23T05:26:11.832Z,17.50
2023-05-23T05:28:39.670Z,17.53
2023-05-23T05:31:07.922Z,17.46
2023-05-23T05:33:37.743Z,17.52
2023-05-23T05:36:16.728Z,17.65
2023-05-23T05:38:46.286Z,17.81
2023-05-23T05:41:14.659Z,17.86
2023-05-23T05:43:49.744Z,17.95
2023-05-23T05:46:17.812Z,18.08
2023-05-23T05:48:47.355Z,18.16
2023-05-23T05:51:17.633Z,18.36
2023-05-23T05:53:46.448Z,19.58
2023-05-23T05:56:14.885Z,19.76
2023-05-23T05:58:42.788Z,20.26
2023-05-23T06:01:14.702Z,20.70
2023-05-23T06:03:43.754Z,20.70
2023-05-23T06:06:12.036Z,20.74
2023-05-23T06:08:41.633Z,21.80
2023-05-23T06:11:13.010Z,21.64
2023-05-23T06:13:40.763Z,21.80
2023-05-23T06:16:08.955Z,22.18
2023-05-23T06:18:36.798Z,22.41
2023-05-23T06:21:04.835Z,21.97
2023-05-23T06:23:34.577Z,21.82
2023-05-23T06:26:02.819Z,21.60
2023-05-23T06:28:30.564Z,21.47
2023-05-23T06:30:58.808Z,21.42
2023-05-23T06:33:26.582Z,21.31
2023-05-23T06:35:54.627Z,21.44
2023-05-23T06:38:22.680Z,21.45
2023-05-23T06:40:51.159Z,21.47
2023-05-23T06:43:19.820Z,21.49
2023-05-23T06:45:55.093Z,21.86
2023-05-23T06:48:22.919Z,22.07
2023-05-23T06:50:52.694Z,22.16
2023-05-23T06:53:22.175Z,22.46
2023-05-23T06:55:51.599Z,23.25
2023-05-23T06:58:25.229Z,23.84
2023-05-23T07:00:56.925Z,24.35
2023-05-23T07:03:31.703Z,24.23
2023-05-23T07:06:04.936Z,24.47
2023-05-23T07:08:33.036Z,25.33
2023-05-23T07:11:02.351Z,26.60
2023-05-23T07:13:37.955Z,27.87
2023-05-23T07:16:06.368Z,29.74
2023-05-23T07:18:38.820Z,31.83
2023-05-23T07:21:07.696Z,33.35
2023-05-23T07:23:35.484Z,34.62
2023-05-23T07:26:03.994Z,36.18
2023-05-23T07:28:42.045Z,36.59
2023-05-23T07:31:10.194Z,36.59
2023-05-23T07:33:39.208Z,38.77
2023-05-23T07:36:10.358Z,39.00
2023-05-23T07:38:38.200Z,39.63
2023-05-23T07:41:11.388Z,39.32
2023-05-23T07:43:41.351Z,38.71
2023-05-23T07:46:10.141Z,38.70
2023-05-23T07:48:39.053Z,39.02
2023-05-23T07:51:07.201Z,40.08
2023-05-23T07:53:39.995Z,40.03
2023-05-23T07:56:11.498Z,40.15
2023-05-23T07:58:41.847Z,38.81
2023-05-23T08:01:10.144Z,39.62
2023-05-23T08:03:58.238Z,40.66
2023-05-23T08:06:33.763Z,40.49
2023-05-23T08:09:06.841Z,40.40
2023-05-23T08:11:39.142Z,40.73
2023-05-23T08:14:07.984Z,40.88
2023-05-23T08:16:39.389Z,41.35
2023-05-23T08:19:12.615Z,41.25
2023-05-23T08:21:41.388Z,41.35
2023-05-23T08:24:09.403Z,40.78
2023-05-23T08:26:40.120Z,39.87
2023-05-23T08:29:11.264Z,40.33
2023-05-23T08:31:39.404Z,40.35
2023-05-23T08:34:08.383Z,40.30
2023-05-23T08:36:40.430Z,40.72
2023-05-23T08:39:13.842Z,41.21
2023-05-23T08:41:51.929Z,40.58
2023-05-23T08:44:19.839Z,40.53
2023-05-23T08:46:54.081Z,40.07
2023-05-23T08:49:42.164Z,39.55
2023-05-23T08:52:14.690Z,40.00
2023-05-23T08:54:46.274Z,38.79
2023-05-23T08:57:16.854Z,38.44
2023-05-23T08:59:51.898Z,38.08
2023-05-23T09:02:22.518Z,38.44
2023-05-23T09:04:53.859Z,38.22
2023-05-23T09:07:28.835Z,38.23
2023-05-23T09:09:56.700Z,37.11
2023-05-23T09:12:24.835Z,37.19
2023-05-23T09:14:52.967Z,37.06
2023-05-23T09:17:23.971Z,36.02
2023-05-23T09:19:53.183Z,36.55
2023-05-23T09:22:29.834Z,36.97
2023-05-23T09:25:03.143Z,36.96
2023-05-23T09:27:31.417Z,36.87
2023-05-23T09:30:05.576Z,36.90
2023-05-23T09:32:33.810Z,36.67
2023-05-23T09:35:07.074Z,36.62
2023-05-23T09:37:40.965Z,36.22
2023-05-23T09:40:11.074Z,36.57
2023-05-23T09:42:48.578Z,35.76
2023-05-23T09:45:17.253Z,36.10
2023-05-23T09:47:52.723Z,35.46
2023-05-23T09:50:21.757Z,35.27
2023-05-23T09:52:51.336Z,35.49
2023-05-23T09:55:19.649Z,35.07
2023-05-23T09:57:53.347Z,33.64
2023-05-23T10:00:21.683Z,33.96
2023-05-23T10:03:11.549Z,34.97
2023-05-23T10:05:48.772Z,34.93
2023-05-23T10:08:31.217Z,34.27
2023-05-23T10:11:01.685Z,34.12
2023-05-23T10:13:31.949Z,32.97
2023-05-23T10:16:38.879Z,31.02
2023-05-23T10:19:27.328Z,29.90
2023-05-23T10:22:01.506Z,28.96
2023-05-23T10:24:30.052Z,28.59
2023-05-23T10:26:59.412Z,28.26
2023-05-23T10:29:28.604Z,28.05
2023-05-23T10:31:57.802Z,27.62
2023-05-23T10:34:40.575Z,27.38
2023-05-23T10:37:12.540Z,26.77
2023-05-23T10:39:46.582Z,26.74
2023-05-23T10:42:22.361Z,27.02
2023-05-23T10:44:50.361Z,27.08
2023-05-23T10:47:30.309Z,27.10
2023-05-23T10:49:58.344Z,27.14
2023-05-23T10:52:27.116Z,26.69
2023-05-23T10:54:56.454Z,26.88
2023-05-23T10:57:27.929Z,27.09
2023-05-23T10:59:56.437Z,26.72
2023-05-23T11:02:29.344Z,26.38
2023-05-23T11:05:24.470Z,26.40
2023-05-23T11:08:09.557Z,26.52
2023-05-23T11:10:59.455Z,26.79
2023-05-23T11:13:47.767Z,27.49
2023-05-23T11:16:30.458Z,28.01
2023-05-23T11:19:17.150Z,28.19
2023-05-23T11:22:02.200Z,28.13
2023-05-23T11:24:52.765Z,28.15
2023-05-23T11:27:36.079Z,28.17
2023-05-23T11:30:15.864Z,28.13
2023-05-23T11:32:52.555Z,28.08
2023-05-23T11:35:21.390Z,27.98
2023-05-23T11:37:50.105Z,27.80
2023-05-23T11:40:34.045Z,27.89
2023-05-23T11:43:05.353Z,27.93
2023-05-23T11:45:34.424Z,27.29
2023-05-23T11:48:16.921Z,26.76
2023-05-23T11:50:53.257Z,26.38
2023-05-23T11:53:25.504Z,26.09
2023-05-23T11:56:00.648Z,26.06
2023-05-23T11:58:36.699Z,25.89
2023-05-23T12:01:09.756Z,25.76
2023-05-23T12:03:49.310Z,26.34
2023-05-23T12:06:20.810Z,26.55
2023-05-23T12:08:49.013Z,26.46
2023-05-23T12:11:17.836Z,26.42
2023-05-23T12:13:46.900Z,26.67
2023-05-23T12:16:17.916Z,26.53
2023-05-23T12:18:46.141Z,26.64
2023-05-23T12:21:13.806Z,26.83
2023-05-23T12:23:43.075Z,26.70
2023-05-23T12:26:10.946Z,26.94
2023-05-23T12:28:45.009Z,27.09
2023-05-23T12:31:21.433Z,26.89
2023-05-23T12:33:52.981Z,26.82
2023-05-23T12:36:29.598Z,26.54
2023-05-23T12:39:06.050Z,26.65
2023-05-23T12:41:34.478Z,26.63
2023-05-23T12:44:04.060Z,26.61
2023-05-23T12:46:31.816Z,26.64
2023-05-23T12:48:59.956Z,26.50
2023-05-23T12:51:27.684Z,26.36
2023-05-23T12:53:57.287Z,26.14
2023-05-23T12:56:25.108Z,26.17
2023-05-23T12:58:54.078Z,26.12
2023-05-23T13:01:22.361Z,25.92
2023-05-23T13:03:50.604Z,25.82
2023-05-23T13:06:18.367Z,25.97
2023-05-23T13:08:46.809Z,26.07
2023-05-23T13:11:14.617Z,25.99
2023-05-23T13:13:42.764Z,25.83
2023-05-23T13:16:10.600Z,25.78
2023-05-23T13:18:39.003Z,25.79
2023-05-23T13:21:07.339Z,25.84
2023-05-23T13:23:36.728Z,25.82
2023-05-23T13:26:04.970Z,25.67
2023-05-23T13:28:33.979Z,25.44
2023-05-23T13:31:03.475Z,25.40
2023-05-23T13:33:31.877Z,25.42
2023-05-23T13:35:59.653Z,25.53
2023-05-23T13:38:27.910Z,25.59
2023-05-23T13:40:55.792Z,25.52
2023-05-23T13:43:24.334Z,25.61
2023-05-23T13:45:52.750Z,25.72
2023-05-23T13:48:20.747Z,25.65
2023-05-23T13:50:48.655Z,25.61
2023-05-23T13:53:17.125Z,25.20
2023-05-23T13:55:48.124Z,24.93
2023-05-23T13:58:16.166Z,24.82
2023-05-23T14:00:44.239Z,25.05
2023-05-23T14:03:12.825Z,25.23
2023-05-23T14:05:40.619Z,25.34
2023-05-23T14:08:08.902Z,25.41
2023-05-23T14:10:36.590Z,25.52
2023-05-23T14:13:04.753Z,25.63
2023-05-23T14:15:34.501Z,25.68
2023-05-23T14:18:02.783Z,25.76
2023-05-23T14:20:30.716Z,25.77
2023-05-23T14:22:58.769Z,25.82
2023-05-23T14:25:26.611Z,25.75
2023-05-23T14:27:55.728Z,25.68
2023-05-23T14:30:23.662Z,25.56
2023-05-23T14:32:51.770Z,25.51
2023-05-23T14:35:19.623Z,25.63
2023-05-23T14:37:47.659Z,25.74
2023-05-23T14:40:16.391Z,25.78
2023-05-23T14:42:44.469Z,25.70
2023-05-23T14:45:12.424Z,25.75
2023-05-23T14:47:40.459Z,25.66
2023-05-23T14:50:08.872Z,25.40
2023-05-23T14:52:36.856Z,25.18
2023-05-23T14:55:04.881Z,25.18
2023-05-23T14:57:33.388Z,24.96
2023-05-23T15:00:03.284Z,25.08
2023-05-23T15:02:33.848Z,25.17
2023-05-23T15:05:01.912Z,25.13
2023-05-23T15:07:30.060Z,25.12
2023-05-23T15:09:58.190Z,24.93
2023-05-23T15:12:26.477Z,24.99
2023-05-23T15:14:54.623Z,24.98
2023-05-23T15:17:25.059Z,24.90
2023-05-23T15:19:56.963Z,24.85
2023-05-23T15:24:58.366Z,24.84
2023-05-23T15:27:26.415Z,24.88
2023-05-23T15:29:54.217Z,24.82
2023-05-23T15:32:22.576Z,24.84
2023-05-23T15:34:50.491Z,24.78
2023-05-23T15:37:18.832Z,24.82
2023-05-23T15:39:47.188Z,24.90
2023-05-23T15:42:15.758Z,25.02
2023-05-23T15:44:43.551Z,25.00
2023-05-23T15:47:11.774Z,24.92
2023-05-23T15:49:39.485Z,24.85
2023-05-23T15:52:07.564Z,24.86
2023-05-23T15:54:35.410Z,24.70
2023-05-23T15:57:03.496Z,24.59
2023-05-23T15:59:34.273Z,24.36
2023-05-23T16:02:06.171Z,24.18
2023-05-23T16:04:36.124Z,23.93
2023-05-23T16:07:04.960Z,23.79
2023-05-23T16:09:32.788Z,23.74
2023-05-23T16:12:00.804Z,23.51
2023-05-23T16:14:28.556Z,23.57
2023-05-23T16:16:56.529Z,23.44
2023-05-23T16:19:24.502Z,23.65
2023-05-23T16:21:52.492Z,23.74
2023-05-23T16:24:20.168Z,23.91
2023-05-23T16:26:48.172Z,23.86
2023-05-23T16:29:16.022Z,23.93
2023-05-23T16:31:44.135Z,24.09
2023-05-23T16:34:11.846Z,24.20
2023-05-23T16:36:40.392Z,24.14
2023-05-23T16:39:08.194Z,24.14
2023-05-23T16:41:36.150Z,24.05
2023-05-23T16:44:04.077Z,24.12
2023-05-23T16:46:32.612Z,24.12
2023-05-23T16:49:00.455Z,24.05
2023-05-23T16:51:28.464Z,24.01
2023-05-23T16:53:56.385Z,24.09
2023-05-23T16:56:24.443Z,23.99
2023-05-23T16:58:52.305Z,23.81
2023-05-23T17:01:20.501Z,23.76
2023-05-23T17:03:48.581Z,23.74
2023-05-23T17:06:16.773Z,23.51
2023-05-23T17:08:44.561Z,23.49
2023-05-23T17:11:12.570Z,23.32
2023-05-23T17:13:40.682Z,23.21
2023-05-23T17:16:08.928Z,22.99
2023-05-23T17:18:36.709Z,23.07
2023-05-23T17:21:04.756Z,22.83
2023-05-23T17:23:32.589Z,22.70
2023-05-23T17:26:00.639Z,22.52
2023-05-23T17:28:28.392Z,22.39
2023-05-23T17:30:56.692Z,22.27
2023-05-23T17:33:24.542Z,22.10
2023-05-23T17:35:52.563Z,21.95
2023-05-23T17:38:20.389Z,21.88
2023-05-23T17:40:48.738Z,21.80
2023-05-23T17:43:16.603Z,21.69
2023-05-23T17:45:44.670Z,21.62
2023-05-23T17:48:12.593Z,21.46
2023-05-23T17:50:40.730Z,21.47
2023-05-23T17:53:08.582Z,21.32
2023-05-23T17:55:36.559Z,21.17
2023-05-23T17:58:04.369Z,20.98
2023-05-23T18:00:32.539Z,20.83
2023-05-23T18:03:01.731Z,20.71
2023-05-23T18:05:29.781Z,20.59
2023-05-23T18:07:57.699Z,20.60
2023-05-23T18:10:26.263Z,20.54
2023-05-23T18:12:54.019Z,20.39
2023-05-23T18:15:22.456Z,20.35
2023-05-23T18:17:53.019Z,20.31
2023-05-23T18:20:21.637Z,20.38
2023-05-23T18:22:55.986Z,20.23
2023-05-23T18:25:27.635Z,20.07
2023-05-23T18:27:59.106Z,20.08
2023-05-23T18:30:27.988Z,20.10
2023-05-23T18:32:56.616Z,20.24
2023-05-23T18:35:25.845Z,20.29
2023-05-23T18:37:54.618Z,20.15
2023-05-23T18:40:24.262Z,20.16
2023-05-23T18:42:52.306Z,20.04
2023-05-23T18:45:20.531Z,19.99
2023-05-23T18:47:48.647Z,19.99
2023-05-23T18:50:16.877Z,19.95
2023-05-23T18:52:44.687Z,19.92
2023-05-23T18:55:12.955Z,19.89
2023-05-23T18:57:40.906Z,19.78
2023-05-23T19:00:09.659Z,19.89
2023-05-23T19:02:39.611Z,19.97
2023-05-23T19:05:08.269Z,19.87
2023-05-23T19:07:36.088Z,19.81
2023-05-23T19:10:04.399Z,19.66
2023-05-23T19:12:32.131Z,19.55
2023-05-23T19:15:00.161Z,19.56
2023-05-23T19:17:28.068Z,19.49
2023-05-23T19:19:56.133Z,19.50
2023-05-23T19:22:24.399Z,19.51
2023-05-23T19:24:52.409Z,19.41
2023-05-23T19:27:20.141Z,19.25
2023-05-23T19:29:48.193Z,19.16
2023-05-23T19:32:16.616Z,19.03
2023-05-23T19:34:44.811Z,18.89
2023-05-23T19:37:12.714Z,18.75
2023-05-23T19:39:45.719Z,18.62
2023-05-23T19:42:13.753Z,18.51
2023-05-23T19:44:41.850Z,18.41
2023-05-23T19:47:09.664Z,18.27
2023-05-23T19:49:37.818Z,18.14
2023-05-23T19:52:05.705Z,18.04
2023-05-23T19:54:33.885Z,18.06
2023-05-23T19:57:02.230Z,18.03
2023-05-23T19:59:30.691Z,18.02
2023-05-23T20:01:58.575Z,17.98
2023-05-23T20:04:28.513Z,17.90
2023-05-23T20:06:56.281Z,17.89
2023-05-23T20:09:24.639Z,17.80
2023-05-23T20:11:52.808Z,17.79
2023-05-23T20:14:20.887Z,17.74
2023-05-23T20:16:48.727Z,17.60
2023-05-23T20:19:17.128Z,17.45
2023-05-23T20:21:44.992Z,17.49
2023-05-23T20:24:15.074Z,17.44
2023-05-23T20:26:43.184Z,17.37
2023-05-23T20:29:11.286Z,17.28
2023-05-23T20:31:39.162Z,17.20
2023-05-23T20:34:07.465Z,17.19
2023-05-23T20:36:35.279Z,17.17
2023-05-23T20:39:03.251Z,17.16
2023-05-23T20:41:31.079Z,17.09
2023-05-23T20:44:01.615Z,17.10
2023-05-23T20:46:29.620Z,17.17
2023-05-23T20:48:57.752Z,17.21
2023-05-23T20:51:25.812Z,17.30
2023-05-23T20:53:53.734Z,17.36
2023-05-23T20:56:22.134Z,17.33
2023-05-23T20:58:50.142Z,17.19
2023-05-23T21:01:18.165Z,17.18
2023-05-23T21:03:46.203Z,17.19
2023-05-23T21:06:14.381Z,17.07
2023-05-23T21:08:42.521Z,16.92
2023-05-23T21:11:10.253Z,17.04
2023-05-23T21:13:39.889Z,16.95
2023-05-23T21:16:08.771Z,16.83
2023-05-23T21:18:36.796Z,16.85
2023-05-23T21:21:05.333Z,16.69
2023-05-23T21:23:33.384Z,16.66
2023-05-23T21:26:01.204Z,16.57
2023-05-23T21:28:29.315Z,16.42
2023-05-23T21:30:57.615Z,16.36
2023-05-23T21:33:25.727Z,16.35
2023-05-23T21:35:53.395Z,16.32
2023-05-23T21:38:21.394Z,16.37
2023-05-23T21:40:49.132Z,16.41
2023-05-23T21:43:17.197Z,16.32
2023-05-23T21:45:44.905Z,16.40
2023-05-23T21:48:13.310Z,16.33
2023-05-23T21:50:41.144Z,16.24
2023-05-23T21:53:09.643Z,16.17
2023-05-23T21:55:37.382Z,16.20
2023-05-23T21:58:05.727Z,16.18
2023-05-23T22:00:33.778Z,16.30
2023-05-23T22:03:01.860Z,16.30
2023-05-23T22:05:29.934Z,16.40
2023-05-23T22:07:57.848Z,16.55
2023-05-23T22:10:25.473Z,16.58
2023-05-23T22:12:53.401Z,16.72
2023-05-23T22:15:21.132Z,16.73
2023-05-23T22:17:49.043Z,16.63
2023-05-23T22:20:16.831Z,16.53
2023-05-23T22:22:44.811Z,16.55
2023-05-23T22:25:12.489Z,16.55
2023-05-23T22:27:40.563Z,16.42
2023-05-23T22:30:08.642Z,16.55
2023-05-23T22:32:36.611Z,16.54
2023-05-23T22:35:04.323Z,16.35
2023-05-23T22:37:32.106Z,16.27
2023-05-23T22:39:59.774Z,16.34
2023-05-23T22:42:27.611Z,16.54
2023-05-23T22:44:55.206Z,16.55
2023-05-23T22:47:23.775Z,16.63
2023-05-23T22:49:56.472Z,16.70
2023-05-23T22:52:24.905Z,16.67
2023-05-23T22:54:52.604Z,16.70
2023-05-23T22:57:20.496Z,16.73
2023-05-23T22:59:48.109Z,16.79
2023-05-23T23:02:16.068Z,16.76
2023-05-23T23:04:44.361Z,16.80
2023-05-23T23:07:12.242Z,16.75
2023-05-23T23:09:39.925Z,16.92
2023-05-23T23:12:07.822Z,16.92
2023-05-23T23:14:35.474Z,16.94
2023-05-23T23:17:03.605Z,16.96
2023-05-23T23:19:31.302Z,17.04
2023-05-23T23:21:59.209Z,16.93
2023-05-23T23:24:26.835Z,16.88
2023-05-23T23:26:54.728Z,16.85
2023-05-23T23:29:22.458Z,16.76
2023-05-23T23:31:50.600Z,16.74
2023-05-23T23:34:18.459Z,16.84
2023-05-23T23:36:46.421Z,16.82
2023-05-23T23:39:14.093Z,16.77
2023-05-23T23:41:42.051Z,16.88
2023-05-23T23:44:10.006Z,16.89
2023-05-23T23:46:38.163Z,16.93
2023-05-23T23:49:06.096Z,16.98
2023-05-23T23:51:34.053Z,17.03
2023-05-23T23:54:02.004Z,16.94
2023-05-23T23:56:30.031Z,16.97
2023-05-23T23:58:57.684Z,16.85
